createdAt,value
2023-03-27T00:01:28.602Z,2.95
2023-03-27T00:03:55.920Z,2.89
2023-03-27T00:06:27.354Z,2.93
2023-03-27T00:08:54.574Z,2.78
2023-03-27T00:11:22.428Z,2.90
2023-03-27T00:13:55.068Z,2.93
2023-03-27T00:16:24.301Z,2.99
2023-03-27T00:18:51.748Z,3.00
2023-03-27T00:21:19.561Z,3.01
2023-03-27T00:23:47.030Z,2.93
2023-03-27T00:26:14.559Z,2.95
2023-03-27T00:28:42.273Z,2.86
2023-03-27T00:31:22.631Z,2.90
2023-03-27T00:33:53.052Z,2.87
2023-03-27T00:36:23.312Z,2.77
2023-03-27T00:38:53.326Z,2.84
2023-03-27T00:41:21.535Z,2.82
2023-03-27T00:43:50.597Z,2.81
2023-03-27T00:46:42.587Z,2.90
2023-03-27T00:49:12.446Z,2.78
2023-03-27T00:51:41.859Z,2.78
2023-03-27T00:54:10.005Z,2.85
2023-03-27T00:56:38.862Z,2.77
2023-03-27T00:59:15.691Z,2.81
2023-03-27T01:01:47.729Z,2.82
2023-03-27T01:04:20.602Z,2.76
2023-03-27T01:06:52.036Z,2.68
2023-03-27T01:09:22.021Z,2.69
2023-03-27T01:12:24.248Z,2.79
2023-03-27T01:15:27.278Z,2.66
2023-03-27T01:18:06.391Z,2.72
2023-03-27T01:21:06.394Z,2.69
2023-03-27T01:24:22.094Z,2.73
2023-03-27T01:26:57.742Z,2.69
2023-03-27T01:29:50.570Z,2.70
2023-03-27T01:32:28.719Z,2.63
2023-03-27T01:35:32.042Z,2.53
2023-03-27T01:38:07.809Z,2.57
2023-03-27T01:41:10.652Z,2.49
2023-03-27T01:43:46.325Z,2.30
2023-03-27T01:46:31.765Z,2.33
2023-03-27T01:49:13.427Z,2.33
2023-03-27T01:51:44.898Z,2.23
2023-03-27T01:54:26.122Z,2.24
2023-03-27T01:57:02.696Z,2.20
2023-03-27T01:59:33.888Z,2.07
2023-03-27T02:02:05.008Z,2.03
2023-03-27T02:04:44.759Z,2.08
2023-03-27T02:07:23.276Z,2.20
2023-03-27T02:09:54.313Z,2.08
2023-03-27T02:12:24.713Z,2.17
2023-03-27T02:14:55.456Z,2.17
2023-03-27T02:17:51.070Z,2.10
2023-03-27T02:20:20.145Z,2.06
2023-03-27T02:22:50.338Z,2.02
2023-03-27T02:25:42.195Z,2.04
2023-03-27T02:28:29.619Z,1.97
2023-03-27T02:31:32.131Z,1.80
2023-03-27T02:34:29.980Z,1.78
2023-03-27T02:37:32.433Z,1.66
2023-03-27T02:41:08.565Z,1.69
2023-03-27T02:44:16.010Z,1.67
2023-03-27T02:47:31.052Z,1.60
2023-03-27T02:50:07.570Z,1.63
2023-03-27T02:52:48.167Z,1.70
2023-03-27T02:55:35.077Z,1.67
2023-03-27T02:58:08.082Z,1.68
2023-03-27T03:01:00.114Z,1.59
2023-03-27T03:03:54.018Z,1.66
2023-03-27T03:07:09.409Z,1.74
2023-03-27T03:09:40.343Z,1.63
2023-03-27T03:12:10.104Z,1.68
2023-03-27T03:14:46.089Z,1.62
2023-03-27T03:17:14.784Z,1.61
2023-03-27T03:19:44.832Z,1.76
2023-03-27T03:22:14.888Z,1.78
2023-03-27T03:24:43.181Z,1.82
2023-03-27T03:27:16.098Z,1.76
2023-03-27T03:30:07.651Z,1.79
2023-03-27T03:32:41.576Z,1.75
2023-03-27T03:35:10.101Z,1.80
2023-03-27T03:37:39.441Z,1.86
2023-03-27T03:40:12.913Z,1.94
2023-03-27T03:42:50.458Z,1.93
2023-03-27T03:45:20.673Z,1.78
2023-03-27T03:47:47.813Z,1.76
2023-03-27T03:50:15.319Z,1.85
2023-03-27T03:52:43.455Z,1.88
2023-03-27T03:55:12.135Z,1.92
2023-03-27T03:57:40.309Z,1.86
2023-03-27T04:00:12.716Z,1.95
2023-03-27T04:02:52.541Z,1.95
2023-03-27T04:05:20.929Z,1.94
2023-03-27T04:07:52.992Z,2.03
2023-03-27T04:10:41.412Z,2.13
2023-03-27T04:13:24.718Z,2.25
2023-03-27T04:16:04.227Z,2.29
2023-03-27T04:19:09.309Z,2.34
2023-03-27T04:21:42.664Z,2.26
2023-03-27T04:24:14.225Z,2.15
2023-03-27T04:26:45.125Z,2.31
2023-03-27T04:29:15.332Z,2.32
2023-03-27T04:32:00.700Z,2.38
2023-03-27T04:34:42.712Z,2.30
2023-03-27T04:37:32.592Z,2.30
2023-03-27T04:40:25.478Z,2.24
2023-03-27T04:42:53.052Z,2.08
2023-03-27T04:45:25.880Z,2.04
2023-03-27T04:47:55.240Z,2.08
2023-03-27T04:50:22.837Z,2.10
2023-03-27T04:52:51.870Z,2.13
2023-03-27T04:55:20.356Z,2.11
2023-03-27T04:57:57.602Z,2.20
2023-03-27T05:00:24.926Z,2.04
2023-03-27T05:03:12.023Z,2.19
2023-03-27T05:06:16.512Z,2.26
2023-03-27T05:08:43.553Z,2.23
2023-03-27T05:11:23.744Z,2.21
2023-03-27T05:13:51.200Z,2.06
2023-03-27T05:16:22.466Z,2.20
2023-03-27T05:18:54.716Z,2.23
2023-03-27T05:21:22.725Z,2.17
2023-03-27T05:23:59.564Z,2.12
2023-03-27T05:26:29.852Z,2.07
2023-03-27T05:29:02.759Z,2.22
2023-03-27T05:44:27.842Z,2.35
2023-03-27T06:11:05.335Z,2.14
2023-03-27T06:13:41.210Z,2.36
2023-03-27T06:32:02.157Z,2.37
2023-03-27T06:35:06.496Z,2.24
2023-03-27T06:41:34.637Z,2.44
2023-03-27T06:48:37.316Z,2.81
2023-03-27T06:51:31.712Z,2.75
2023-03-27T06:54:23.243Z,2.89
2023-03-27T07:03:49.102Z,3.40
2023-03-27T07:26:56.964Z,4.15
2023-03-27T07:29:45.118Z,4.24
2023-03-27T07:52:01.364Z,4.09
2023-03-27T07:58:07.309Z,4.05
2023-03-27T08:03:41.697Z,4.41
2023-03-27T08:06:19.366Z,4.70
2023-03-27T08:11:39.723Z,4.37
2023-03-27T08:21:14.401Z,4.43
2023-03-27T08:27:00.864Z,4.78
2023-03-27T08:46:46.194Z,5.06
2023-03-27T08:52:49.247Z,5.37
2023-03-27T08:55:42.465Z,5.75
2023-03-27T08:58:28.568Z,5.86
2023-03-27T09:01:45.882Z,5.67
2023-03-27T09:04:38.177Z,5.51
2023-03-27T09:07:24.920Z,5.34
2023-03-27T09:10:13.256Z,5.33
2023-03-27T09:12:46.804Z,5.64
2023-03-27T09:15:42.900Z,5.83
2023-03-27T09:18:37.999Z,5.65
2023-03-27T09:24:31.334Z,6.20
2023-03-27T09:27:29.240Z,6.10
2023-03-27T09:34:29.286Z,6.12
2023-03-27T09:37:02.807Z,6.24
2023-03-27T09:39:34.417Z,7.15
2023-03-27T09:42:32.013Z,8.11
2023-03-27T09:45:14.637Z,7.69
2023-03-27T09:48:04.216Z,7.08
2023-03-27T09:50:47.671Z,6.71
2023-03-27T09:53:33.080Z,6.80
2023-03-27T09:56:14.072Z,6.92
2023-03-27T09:59:26.211Z,6.76
2023-03-27T10:02:00.430Z,7.23
2023-03-27T10:04:32.226Z,7.23
2023-03-27T10:07:09.181Z,7.41
2023-03-27T10:10:05.668Z,8.16
2023-03-27T10:12:41.186Z,8.20
2023-03-27T10:15:32.780Z,8.32
2023-03-27T10:24:35.040Z,7.59
2023-03-27T10:27:41.574Z,7.84
2023-03-27T10:30:48.690Z,7.72
2023-03-27T10:33:41.639Z,7.60
2023-03-27T10:36:17.573Z,7.52
2023-03-27T10:38:55.021Z,7.45
2023-03-27T10:41:31.162Z,7.37
2023-03-27T10:44:02.572Z,7.34
2023-03-27T10:46:30.622Z,7.22
2023-03-27T10:49:36.846Z,7.23
2023-03-27T10:52:18.274Z,7.29
2023-03-27T10:55:12.592Z,7.12
2023-03-27T10:57:42.774Z,7.13
2023-03-27T11:00:13.823Z,7.35
2023-03-27T11:03:05.968Z,7.63
2023-03-27T11:05:47.493Z,7.66
2023-03-27T11:08:45.556Z,7.57
2023-03-27T11:14:04.024Z,6.98
2023-03-27T11:16:36.956Z,6.79
2023-03-27T11:19:34.085Z,6.88
2023-03-27T11:22:34.068Z,6.68
2023-03-27T11:25:12.292Z,6.63
2023-03-27T11:27:48.569Z,6.54
2023-03-27T11:30:32.738Z,6.86
2023-03-27T11:33:05.906Z,6.84
2023-03-27T11:35:41.942Z,6.78
2023-03-27T11:38:33.844Z,6.66
2023-03-27T11:41:03.941Z,6.63
2023-03-27T11:43:42.182Z,6.54
2023-03-27T11:46:44.667Z,6.51
2023-03-27T11:49:16.716Z,6.47
2023-03-27T11:52:06.232Z,6.32
2023-03-27T11:54:54.605Z,6.44
2023-03-27T11:57:28.507Z,6.61
2023-03-27T12:00:25.819Z,6.63
2023-03-27T12:03:07.151Z,6.70
2023-03-27T12:05:48.871Z,6.81
2023-03-27T12:08:45.478Z,7.08
2023-03-27T12:11:13.976Z,7.30
2023-03-27T12:14:18.746Z,7.15
2023-03-27T12:17:21.133Z,7.34
2023-03-27T12:19:59.000Z,7.40
2023-03-27T12:31:33.492Z,7.75
2023-03-27T12:34:56.553Z,7.33
2023-03-27T12:45:12.202Z,6.67
2023-03-27T12:48:31.083Z,6.42
2023-03-27T12:52:00.727Z,6.62
2023-03-27T12:55:23.983Z,6.56
2023-03-27T12:57:57.936Z,6.47
2023-03-27T13:01:01.161Z,6.54
2023-03-27T13:04:13.569Z,7.55
2023-03-27T13:06:41.747Z,8.34
2023-03-27T13:09:37.288Z,7.86
2023-03-27T13:12:28.444Z,7.73
2023-03-27T13:15:36.468Z,8.19
2023-03-27T13:18:27.527Z,9.77
2023-03-27T13:24:55.884Z,11.40
2023-03-27T13:28:04.641Z,11.41
2023-03-27T13:30:51.940Z,9.73
2023-03-27T13:33:48.321Z,8.39
2023-03-27T13:36:47.149Z,7.66
2023-03-27T13:39:26.952Z,7.27
2023-03-27T13:42:33.712Z,7.07
2023-03-27T13:45:29.481Z,7.00
2023-03-27T13:49:18.711Z,7.08
2023-03-27T13:52:32.671Z,7.33
2023-03-27T13:55:28.447Z,10.48
2023-03-27T13:58:45.910Z,10.98
2023-03-27T14:01:25.742Z,9.52
2023-03-27T14:04:25.939Z,8.75
2023-03-27T14:07:21.389Z,9.14
2023-03-27T14:10:20.322Z,9.13
2023-03-27T14:13:34.552Z,8.72
2023-03-27T14:16:17.443Z,9.52
2023-03-27T14:19:12.454Z,9.14
2023-03-27T14:22:19.650Z,10.39
2023-03-27T14:24:59.449Z,10.72
2023-03-27T14:28:00.563Z,11.88
2023-03-27T14:30:42.845Z,10.70
2023-03-27T14:33:32.488Z,9.22
2023-03-27T14:36:05.941Z,8.10
2023-03-27T14:38:38.657Z,7.86
2023-03-27T14:41:33.605Z,7.50
2023-03-27T14:44:05.590Z,7.20
2023-03-27T14:50:30.464Z,6.76
2023-03-27T14:53:00.159Z,6.65
2023-03-27T14:56:26.281Z,6.68
2023-03-27T14:59:15.303Z,6.51
2023-03-27T15:02:06.598Z,6.31
2023-03-27T15:04:40.582Z,6.25
2023-03-27T15:07:28.929Z,6.26
2023-03-27T15:10:37.906Z,6.28
2023-03-27T15:13:10.917Z,5.88
2023-03-27T15:15:47.111Z,5.65
2023-03-27T15:18:22.821Z,5.75
2023-03-27T15:21:07.016Z,5.48
2023-03-27T15:23:41.546Z,5.62
2023-03-27T15:26:25.120Z,5.37
2023-03-27T15:35:48.479Z,4.44
2023-03-27T15:39:04.853Z,4.17
2023-03-27T15:41:37.412Z,4.32
2023-03-27T15:44:08.528Z,4.24
2023-03-27T15:47:01.231Z,4.22
2023-03-27T15:49:44.068Z,4.16
2023-03-27T15:52:35.585Z,4.10
2023-03-27T15:55:04.244Z,4.04
2023-03-27T15:57:36.388Z,4.08
2023-03-27T16:00:27.545Z,4.19
2023-03-27T16:02:56.433Z,4.19
2023-03-27T16:08:39.120Z,4.31
2023-03-27T16:11:10.057Z,4.20
2023-03-27T16:13:53.245Z,4.37
2023-03-27T16:20:02.236Z,4.39
2023-03-27T16:31:54.198Z,4.26
2023-03-27T16:41:26.026Z,4.18
2023-03-27T16:43:58.205Z,4.09
2023-03-27T16:50:29.704Z,4.21
2023-03-27T16:53:02.754Z,4.04
2023-03-27T16:55:30.070Z,4.10
2023-03-27T16:58:06.463Z,3.98
2023-03-27T17:03:28.157Z,4.15
2023-03-27T17:09:03.063Z,4.26
2023-03-27T17:11:32.720Z,4.22
2023-03-27T17:16:52.263Z,4.09
2023-03-27T17:22:27.768Z,3.93
2023-03-27T17:25:18.837Z,3.99
2023-03-27T17:28:01.594Z,3.98
2023-03-27T17:31:04.443Z,3.91
2023-03-27T17:36:44.753Z,3.69
2023-03-27T17:39:30.380Z,3.80
2023-03-27T17:44:58.245Z,4.04
2023-03-27T17:48:50.575Z,4.06
2023-03-27T17:51:17.734Z,3.91
2023-03-27T17:53:49.217Z,3.99
2023-03-27T17:56:16.861Z,3.93
2023-03-27T17:58:50.647Z,3.83
2023-03-27T18:01:23.161Z,3.89
2023-03-27T18:03:53.342Z,4.09
2023-03-27T18:06:27.082Z,3.88
2023-03-27T18:08:56.192Z,3.83
2023-03-27T18:11:24.469Z,4.07
2023-03-27T18:34:00.374Z,3.91
2023-03-27T18:36:44.280Z,3.78
2023-03-27T18:39:22.064Z,3.78
2023-03-27T18:41:49.940Z,3.72
2023-03-27T18:44:18.421Z,3.86
2023-03-27T18:46:49.199Z,3.81
2023-03-27T18:49:24.710Z,3.81
2023-03-27T18:51:54.904Z,3.87
2023-03-27T18:54:28.750Z,3.73
2023-03-27T18:56:57.047Z,3.85
2023-03-27T18:59:24.406Z,3.71
2023-03-27T19:01:51.771Z,3.78
2023-03-27T19:04:25.811Z,3.69
2023-03-27T19:06:54.604Z,3.78
2023-03-27T19:09:31.217Z,3.79
2023-03-27T19:12:15.004Z,3.81
2023-03-27T19:14:47.664Z,3.81
2023-03-27T19:17:35.502Z,3.86
2023-03-27T19:20:09.835Z,3.65
2023-03-27T19:23:00.433Z,3.76
2023-03-27T19:25:50.752Z,3.61
2023-03-27T19:28:36.038Z,3.81
2023-03-27T19:34:42.723Z,3.71
2023-03-27T19:37:17.298Z,3.69
2023-03-27T19:39:48.262Z,3.58
2023-03-27T19:42:29.807Z,3.77
2023-03-27T19:45:02.098Z,3.62
2023-03-27T19:47:36.060Z,3.82
2023-03-27T19:53:31.676Z,3.60
2023-03-27T19:56:00.079Z,3.68
2023-03-27T19:58:30.729Z,3.62
2023-03-27T20:00:58.406Z,3.68
2023-03-27T20:03:25.760Z,3.71
2023-03-27T20:08:43.461Z,3.79
2023-03-27T20:11:26.180Z,3.57
2023-03-27T20:13:57.208Z,3.60
2023-03-27T20:16:29.423Z,3.69
2023-03-27T20:21:48.614Z,3.27
2023-03-27T20:24:18.981Z,3.19
2023-03-27T20:26:57.496Z,3.09
2023-03-27T20:29:27.386Z,2.94
2023-03-27T20:31:55.000Z,2.87
2023-03-27T20:34:28.624Z,2.84
2023-03-27T20:37:01.063Z,2.92
2023-03-27T20:39:47.340Z,2.98
2023-03-27T20:45:20.407Z,2.72
2023-03-27T20:47:52.148Z,2.88
2023-03-27T20:58:07.985Z,2.57
2023-03-27T21:00:48.047Z,2.39
2023-03-27T21:06:10.507Z,2.29
2023-03-27T21:08:40.261Z,2.09
2023-03-27T21:11:08.762Z,2.03
2023-03-27T21:13:42.328Z,2.04
2023-03-27T21:16:31.211Z,2.11
2023-03-27T21:19:12.362Z,2.27
2023-03-27T21:21:46.489Z,2.32
2023-03-27T21:24:24.125Z,2.08
2023-03-27T21:47:47.246Z,1.85
2023-03-27T21:50:23.238Z,1.74
2023-03-27T21:52:57.551Z,1.72
2023-03-27T21:55:34.426Z,1.63
2023-03-27T21:58:15.090Z,1.50
2023-03-27T22:00:57.636Z,1.58
2023-03-27T22:06:57.589Z,1.34
2023-03-27T22:09:30.557Z,1.21
2023-03-27T22:12:02.475Z,1.22
2023-03-27T22:17:31.677Z,1.30
2023-03-27T22:20:11.526Z,1.36
2023-03-27T22:22:51.532Z,1.24
2023-03-27T22:25:21.130Z,1.22
2023-03-27T22:27:51.605Z,1.37
2023-03-27T22:30:23.501Z,1.36
2023-03-27T22:32:56.814Z,1.23
2023-03-27T22:35:28.397Z,1.27
2023-03-27T22:37:57.358Z,1.27
2023-03-27T22:40:26.660Z,1.53
2023-03-27T22:42:56.397Z,1.50
2023-03-27T22:45:27.413Z,1.28
2023-03-27T22:48:03.785Z,1.35
2023-03-27T22:50:41.166Z,1.47
2023-03-27T22:55:57.925Z,1.26
2023-03-27T22:58:27.342Z,1.18
2023-03-27T23:00:58.243Z,1.17
2023-03-27T23:03:32.474Z,1.18
2023-03-27T23:06:03.953Z,1.07
2023-03-27T23:08:35.357Z,1.25
2023-03-27T23:11:12.189Z,1.01
2023-03-27T23:13:44.969Z,0.91
2023-03-27T23:16:13.424Z,1.01
2023-03-27T23:18:44.359Z,0.75
2023-03-27T23:21:13.686Z,0.90
2023-03-27T23:23:42.533Z,0.75
2023-03-27T23:26:34.932Z,0.81
2023-03-27T23:29:02.453Z,0.55
2023-03-27T23:31:29.653Z,0.50
2023-03-27T23:33:56.858Z,0.51
2023-03-27T23:36:49.714Z,0.66
2023-03-27T23:39:17.542Z,0.58
2023-03-27T23:41:44.924Z,0.56
2023-03-27T23:44:12.216Z,0.52
2023-03-27T23:46:40.022Z,0.64
2023-03-27T23:49:07.968Z,0.61
2023-03-27T23:51:37.329Z,0.63
2023-03-27T23:54:04.572Z,0.59
2023-03-27T23:56:37.270Z,0.55
2023-03-27T23:59:05.631Z,0.47
